Red Line, Iowa
Current Conditions -  °F | °C
As of 8:55 PM on Tuesday 21 Oct 2014 (Local Time) from KHNR Reporting Station
Clear Clear  
Wind Chill: 55°   Ceiling: Unl
Heat Index: 55°   Visibility: NA
Dew Point: 45°   Wind: 8mph
Humidity: 67%   Direction: 120°ESE
Pressure: 30.11"   Gusts: 16mph
Location:  41.7338°N, 95.2696°W
Report Text: KHNR 220155Z AUTO 12007G14KT CLR 13/07 A3011 RMK AO2
Loading
Personal Weather Stations






























Interactive Weather Map
Tropical Storm Tracking
New forecast layout! Learn more

10-Day Weather Forecast

Advertisements
Track Severe Weather on mobile